sensor_id;sensor_type;location;lat;lon;timestamp;pressure;altitude;pressure_sealevel;temperature;humidity
70103;BME280;57470;50.034;15.256;2023-02-19T00:01:14;99414.41;;;9.35;97.68
70103;BME280;57470;50.034;15.256;2023-02-19T00:03:41;99416.97;;;9.36;96.84
70103;BME280;57470;50.034;15.256;2023-02-19T00:06:10;99411.34;;;9.41;97.07
70103;BME280;57470;50.034;15.256;2023-02-19T00:08:37;99416.66;;;9.41;97.42
70103;BME280;57470;50.034;15.256;2023-02-19T00:11:06;99407.97;;;9.39;96.89
70103;BME280;57470;50.034;15.256;2023-02-19T00:13:36;99413.28;;;9.39;97.32
70103;BME280;57470;50.034;15.256;2023-02-19T00:16:10;99401.69;;;9.40;97.63
70103;BME280;57470;50.034;15.256;2023-02-19T00:18:36;99401.50;;;9.43;96.99
70103;BME280;57470;50.034;15.256;2023-02-19T00:21:02;99396.28;;;9.41;96.81
70103;BME280;57470;50.034;15.256;2023-02-19T00:23:27;99389.16;;;9.42;96.70
70103;BME280;57470;50.034;15.256;2023-02-19T00:25:53;99389.72;;;9.47;96.72
70103;BME280;57470;50.034;15.256;2023-02-19T00:28:19;99385.47;;;9.45;96.77
70103;BME280;57470;50.034;15.256;2023-02-19T00:30:45;99385.56;;;9.43;96.63
70103;BME280;57470;50.034;15.256;2023-02-19T00:33:10;99389.06;;;9.44;96.48
70103;BME280;57470;50.034;15.256;2023-02-19T00:35:35;99383.84;;;9.42;96.61
70103;BME280;57470;50.034;15.256;2023-02-19T00:38:01;99388.31;;;9.41;96.32
70103;BME280;57470;50.034;15.256;2023-02-19T00:40:27;99388.78;;;9.48;96.13
70103;BME280;57470;50.034;15.256;2023-02-19T00:42:52;99385.66;;;9.41;96.31
70103;BME280;57470;50.034;15.256;2023-02-19T00:45:18;99386.59;;;9.40;95.94
70103;BME280;57470;50.034;15.256;2023-02-19T00:47:43;99376.84;;;9.41;95.89
70103;BME280;57470;50.034;15.256;2023-02-19T00:50:08;99373.84;;;9.33;95.69
70103;BME280;57470;50.034;15.256;2023-02-19T00:52:34;99358.97;;;9.30;95.19
70103;BME280;57470;50.034;15.256;2023-02-19T00:54:59;99367.16;;;9.40;94.73
70103;BME280;57470;50.034;15.256;2023-02-19T00:57:25;99361.22;;;9.36;95.01
70103;BME280;57470;50.034;15.256;2023-02-19T00:59:50;99351.97;;;9.29;94.39
70103;BME280;57470;50.034;15.256;2023-02-19T01:02:16;99352.59;;;9.33;93.65
70103;BME280;57470;50.034;15.256;2023-02-19T01:04:41;99343.53;;;9.23;93.74
70103;BME280;57470;50.034;15.256;2023-02-19T01:07:06;99335.13;;;9.16;93.78
70103;BME280;57470;50.034;15.256;2023-02-19T01:09:32;99341.94;;;9.20;93.23
70103;BME280;57470;50.034;15.256;2023-02-19T01:11:57;99334.69;;;9.10;93.53
70103;BME280;57470;50.034;15.256;2023-02-19T01:14:22;99332.88;;;9.10;93.32
70103;BME280;57470;50.034;15.256;2023-02-19T01:16:48;99335.53;;;9.10;94.17
70103;BME280;57470;50.034;15.256;2023-02-19T01:19:13;99326.63;;;9.11;93.79
70103;BME280;57470;50.034;15.256;2023-02-19T01:21:39;99334.88;;;9.07;94.61
70103;BME280;57470;50.034;15.256;2023-02-19T01:24:05;99332.97;;;9.09;95.13
70103;BME280;57470;50.034;15.256;2023-02-19T01:26:32;99321.59;;;9.07;95.57
70103;BME280;57470;50.034;15.256;2023-02-19T01:28:58;99326.16;;;9.04;96.20
70103;BME280;57470;50.034;15.256;2023-02-19T01:31:24;99334.22;;;9.03;96.70
70103;BME280;57470;50.034;15.256;2023-02-19T01:33:55;99323.81;;;9.00;96.96
70103;BME280;57470;50.034;15.256;2023-02-19T01:36:21;99323.81;;;9.00;97.44
70103;BME280;57470;50.034;15.256;2023-02-19T01:38:47;99322.00;;;9.00;97.57
70103;BME280;57470;50.034;15.256;2023-02-19T01:41:16;99323.81;;;9.00;97.66
70103;BME280;57470;50.034;15.256;2023-02-19T01:46:46;99312.53;;;8.96;97.31
70103;BME280;57470;50.034;15.256;2023-02-19T01:49:31;99311.03;;;8.92;97.46
70103;BME280;57470;50.034;15.256;2023-02-19T01:52:00;99312.53;;;8.96;97.37
70103;BME280;57470;50.034;15.256;2023-02-19T01:54:32;99307.44;;;8.93;97.69
70103;BME280;57470;50.034;15.256;2023-02-19T01:57:01;99307.22;;;8.96;97.56
70103;BME280;57470;50.034;15.256;2023-02-19T01:59:28;99301.06;;;8.96;97.66
70103;BME280;57470;50.034;15.256;2023-02-19T02:01:55;99296.03;;;9.06;96.95
70103;BME280;57470;50.034;15.256;2023-02-19T02:04:21;99286.25;;;9.06;96.88
70103;BME280;57470;50.034;15.256;2023-02-19T02:06:53;99286.25;;;9.06;96.80
70103;BME280;57470;50.034;15.256;2023-02-19T02:09:21;99283.34;;;8.96;97.56
70103;BME280;57470;50.034;15.256;2023-02-19T02:12:06;99276.84;;;8.88;97.51
70103;BME280;57470;50.034;15.256;2023-02-19T02:14:35;99288.97;;;8.92;97.89
70103;BME280;57470;50.034;15.256;2023-02-19T02:17:26;99288.56;;;8.98;97.69
70103;BME280;57470;50.034;15.256;2023-02-19T02:20:19;99276.72;;;9.03;97.63
70103;BME280;57470;50.034;15.256;2023-02-19T02:23:04;99287.88;;;9.09;97.00
70103;BME280;57470;50.034;15.256;2023-02-19T02:30:47;99267.59;;;9.08;97.10
70103;BME280;57470;50.034;15.256;2023-02-19T02:33:30;99258.94;;;9.18;96.89
70103;BME280;57470;50.034;15.256;2023-02-19T02:36:07;99252.03;;;9.16;96.72
70103;BME280;57470;50.034;15.256;2023-02-19T02:38:36;99251.50;;;9.11;96.73
70103;BME280;57470;50.034;15.256;2023-02-19T02:41:03;99257.53;;;9.13;97.14
70103;BME280;57470;50.034;15.256;2023-02-19T02:43:30;99249.81;;;9.22;96.29
70103;BME280;57470;50.034;15.256;2023-02-19T02:45:56;99249.47;;;9.14;96.70
70103;BME280;57470;50.034;15.256;2023-02-19T02:53:52;99233.91;;;9.35;95.51
70103;BME280;57470;50.034;15.256;2023-02-19T02:56:41;99236.78;;;9.32;95.49
70103;BME280;57470;50.034;15.256;2023-02-19T02:59:11;99228.09;;;9.30;95.60
70103;BME280;57470;50.034;15.256;2023-02-19T03:01:47;99237.34;;;9.37;95.50
70103;BME280;57470;50.034;15.256;2023-02-19T03:07:46;99228.41;;;9.38;95.32
70103;BME280;57470;50.034;15.256;2023-02-19T03:10:21;99226.47;;;9.40;95.02
70103;BME280;57470;50.034;15.256;2023-02-19T03:12:53;99215.25;;;9.36;95.82
70103;BME280;57470;50.034;15.256;2023-02-19T03:15:48;99213.88;;;9.44;95.85
70103;BME280;57470;50.034;15.256;2023-02-19T03:18:35;99199.50;;;9.33;95.84
70103;BME280;57470;50.034;15.256;2023-02-19T03:21:22;99210.78;;;9.37;96.07
70103;BME280;57470;50.034;15.256;2023-02-19T03:23:50;99201.53;;;9.30;96.47
70103;BME280;57470;50.034;15.256;2023-02-19T03:26:36;99196.88;;;9.33;96.42
70103;BME280;57470;50.034;15.256;2023-02-19T03:29:05;99199.75;;;9.30;96.71
70103;BME280;57470;50.034;15.256;2023-02-19T03:32:03;99197.19;;;9.29;97.39
70103;BME280;57470;50.034;15.256;2023-02-19T03:34:35;99191.44;;;9.22;98.06
70103;BME280;57470;50.034;15.256;2023-02-19T03:37:14;99192.69;;;9.17;98.63
70103;BME280;57470;50.034;15.256;2023-02-19T03:39:40;99199.06;;;9.14;99.78
70103;BME280;57470;50.034;15.256;2023-02-19T03:42:17;99192.56;;;9.06;100.00
70103;BME280;57470;50.034;15.256;2023-02-19T03:45:05;99180.47;;;9.14;100.00
70103;BME280;57470;50.034;15.256;2023-02-19T03:47:46;99190.41;;;8.98;100.00
70103;BME280;57470;50.034;15.256;2023-02-19T03:50:48;99179.28;;;9.06;100.00
70103;BME280;57470;50.034;15.256;2023-02-19T03:53:26;99182.50;;;9.11;100.00
70103;BME280;57470;50.034;15.256;2023-02-19T03:56:17;99167.88;;;9.18;100.00
70103;BME280;57470;50.034;15.256;2023-02-19T03:59:01;99169.97;;;9.00;100.00
70103;BME280;57470;50.034;15.256;2023-02-19T04:01:53;99169.41;;;8.95;100.00
70103;BME280;57470;50.034;15.256;2023-02-19T04:04:53;99164.31;;;9.04;100.00
70103;BME280;57470;50.034;15.256;2023-02-19T04:07:17;99169.63;;;9.04;100.00
70103;BME280;57470;50.034;15.256;2023-02-19T04:09:46;99169.75;;;9.03;100.00
70103;BME280;57470;50.034;15.256;2023-02-19T04:12:14;99163.38;;;9.06;100.00
70103;BME280;57470;50.034;15.256;2023-02-19T04:15:05;99165.78;;;8.96;100.00
70103;BME280;57470;50.034;15.256;2023-02-19T04:17:41;99162.28;;;8.95;100.00
70103;BME280;57470;50.034;15.256;2023-02-19T04:20:09;99158.06;;;9.06;100.00
70103;BME280;57470;50.034;15.256;2023-02-19T04:22:37;99158.69;;;8.96;100.00
70103;BME280;57470;50.034;15.256;2023-02-19T04:25:04;99158.31;;;9.15;100.00
70103;BME280;57470;50.034;15.256;2023-02-19T04:27:30;99149.63;;;9.26;99.21
70103;BME280;57470;50.034;15.256;2023-02-19T04:29:55;99159.47;;;9.24;99.39
70103;BME280;57470;50.034;15.256;2023-02-19T04:32:22;99154.03;;;9.13;99.00
70103;BME280;57470;50.034;15.256;2023-02-19T04:34:47;99161.38;;;9.22;99.12
70103;BME280;57470;50.034;15.256;2023-02-19T04:37:13;99143.22;;;9.16;99.06
70103;BME280;57470;50.034;15.256;2023-02-19T04:39:38;99141.97;;;9.09;99.27
70103;BME280;57470;50.034;15.256;2023-02-19T04:42:04;99141.44;;;9.16;97.99
70103;BME280;57470;50.034;15.256;2023-02-19T04:44:29;99137.09;;;9.28;98.15
70103;BME280;57470;50.034;15.256;2023-02-19T04:46:54;99132.19;;;9.22;97.86
70103;BME280;57470;50.034;15.256;2023-02-19T04:49:20;99133.06;;;9.10;98.19
70103;BME280;57470;50.034;15.256;2023-02-19T04:51:45;99127.09;;;9.06;98.28
70103;BME280;57470;50.034;15.256;2023-02-19T04:54:11;99124.56;;;9.17;97.62
70103;BME280;57470;50.034;15.256;2023-02-19T04:56:36;99131.38;;;9.21;97.50
70103;BME280;57470;50.034;15.256;2023-02-19T04:59:02;99124.13;;;9.23;96.87
70103;BME280;57470;50.034;15.256;2023-02-19T05:01:27;99123.59;;;9.31;96.03
70103;BME280;57470;50.034;15.256;2023-02-19T05:03:52;99107.56;;;9.32;96.48
70103;BME280;57470;50.034;15.256;2023-02-19T05:06:18;99109.06;;;9.24;96.60
70103;BME280;57470;50.034;15.256;2023-02-19T05:08:43;99109.06;;;9.36;95.70
70103;BME280;57470;50.034;15.256;2023-02-19T05:11:10;99100.06;;;9.39;95.47
70103;BME280;57470;50.034;15.256;2023-02-19T05:13:36;99103.13;;;9.46;95.31
70103;BME280;57470;50.034;15.256;2023-02-19T05:16:07;99094.63;;;9.40;94.91
70103;BME280;57470;50.034;15.256;2023-02-19T05:18:33;99099.94;;;9.40;95.07
70103;BME280;57470;50.034;15.256;2023-02-19T05:21:00;99097.19;;;9.42;95.06
70103;BME280;57470;50.034;15.256;2023-02-19T05:23:26;99093.38;;;9.46;94.53
70103;BME280;57470;50.034;15.256;2023-02-19T05:25:51;99096.63;;;9.50;94.56
70103;BME280;57470;50.034;15.256;2023-02-19T05:28:17;99079.25;;;9.46;94.86
70103;BME280;57470;50.034;15.256;2023-02-19T05:30:45;99082.31;;;9.52;94.42
70103;BME280;57470;50.034;15.256;2023-02-19T05:33:10;99087.31;;;9.57;94.07
70103;BME280;57470;50.034;15.256;2023-02-19T05:35:47;99084.22;;;9.50;94.47
70103;BME280;57470;50.034;15.256;2023-02-19T05:38:13;99077.00;;;9.52;94.27
70103;BME280;57470;50.034;15.256;2023-02-19T05:40:39;99085.59;;;9.43;94.41
70103;BME280;57470;50.034;15.256;2023-02-19T05:43:06;99085.91;;;9.51;94.15
70103;BME280;57470;50.034;15.256;2023-02-19T05:45:32;99086.88;;;9.50;93.94
70103;BME280;57470;50.034;15.256;2023-02-19T05:47:58;99080.41;;;9.54;93.72
70103;BME280;57470;50.034;15.256;2023-02-19T05:50:24;99078.28;;;9.47;94.25
70103;BME280;57470;50.034;15.256;2023-02-19T05:52:49;99082.84;;;9.57;93.67
70103;BME280;57470;50.034;15.256;2023-02-19T05:55:14;99083.66;;;9.58;94.10
70103;BME280;57470;50.034;15.256;2023-02-19T05:57:41;99078.25;;;9.59;93.96
70103;BME280;57470;50.034;15.256;2023-02-19T06:00:08;99082.50;;;9.62;93.68
70103;BME280;57470;50.034;15.256;2023-02-19T06:02:35;99082.59;;;9.60;93.65
70103;BME280;57470;50.034;15.256;2023-02-19T06:05:01;99083.06;;;9.54;93.92
70103;BME280;57470;50.034;15.256;2023-02-19T06:07:26;99080.06;;;9.59;94.09
70103;BME280;57470;50.034;15.256;2023-02-19T06:09:52;99083.66;;;9.58;94.02
70103;BME280;57470;50.034;15.256;2023-02-19T06:12:17;99078.25;;;9.59;94.01
70103;BME280;57470;50.034;15.256;2023-02-19T06:14:43;99081.34;;;9.53;94.11
70103;BME280;57470;50.034;15.256;2023-02-19T06:17:09;99086.97;;;9.61;94.13
70103;BME280;57470;50.034;15.256;2023-02-19T06:19:34;99081.00;;;9.70;93.64
70103;BME280;57470;50.034;15.256;2023-02-19T06:21:59;99079.97;;;9.60;94.05
70103;BME280;57470;50.034;15.256;2023-02-19T06:24:25;99076.66;;;9.69;94.02
70103;BME280;57470;50.034;15.256;2023-02-19T06:26:50;99073.38;;;9.66;93.55
70103;BME280;57470;50.034;15.256;2023-02-19T06:29:16;99079.09;;;9.72;93.51
70103;BME280;57470;50.034;15.256;2023-02-19T06:31:41;99082.41;;;9.63;93.57
70103;BME280;57470;50.034;15.256;2023-02-19T06:34:06;99086.97;;;9.61;93.54
70103;BME280;57470;50.034;15.256;2023-02-19T06:36:32;99069.44;;;9.59;94.31
70103;BME280;57470;50.034;15.256;2023-02-19T06:39:01;99069.53;;;9.70;94.01
70103;BME280;57470;50.034;15.256;2023-02-19T06:41:27;99081.22;;;9.67;94.17
70103;BME280;57470;50.034;15.256;2023-02-19T06:43:52;99086.75;;;9.64;93.72
70103;BME280;57470;50.034;15.256;2023-02-19T06:46:18;99078.78;;;9.64;94.09
70103;BME280;57470;50.034;15.256;2023-02-19T06:48:43;99072.28;;;9.68;94.13
70103;BME280;57470;50.034;15.256;2023-02-19T06:51:14;99071.78;;;9.63;94.30
70103;BME280;57470;50.034;15.256;2023-02-19T06:53:40;99068.13;;;9.77;93.76
70103;BME280;57470;50.034;15.256;2023-02-19T06:56:21;99070.06;;;9.75;93.69
70103;BME280;57470;50.034;15.256;2023-02-19T06:58:47;99069.22;;;9.74;93.57
70103;BME280;57470;50.034;15.256;2023-02-19T07:01:13;99077.03;;;9.89;93.44
70103;BME280;57470;50.034;15.256;2023-02-19T07:03:38;99075.00;;;9.92;93.78
70103;BME280;57470;50.034;15.256;2023-02-19T07:06:04;99072.06;;;9.84;93.80
70103;BME280;57470;50.034;15.256;2023-02-19T07:08:29;99065.44;;;9.90;93.75
70103;BME280;57470;50.034;15.256;2023-02-19T07:10:56;99072.47;;;9.91;93.76
70103;BME280;57470;50.034;15.256;2023-02-19T07:13:23;99065.94;;;9.95;93.07
70103;BME280;57470;50.034;15.256;2023-02-19T07:15:49;99073.72;;;9.98;93.17
70103;BME280;57470;50.034;15.256;2023-02-19T07:18:14;99076.66;;;10.06;92.92
70103;BME280;57470;50.034;15.256;2023-02-19T07:20:40;99070.19;;;10.10;92.49
70103;BME280;57470;50.034;15.256;2023-02-19T07:23:05;99074.22;;;10.03;92.33
70103;BME280;57470;50.034;15.256;2023-02-19T07:25:30;99073.34;;;10.15;92.87
70103;BME280;57470;50.034;15.256;2023-02-19T07:27:56;99076.16;;;10.01;92.17
70103;BME280;57470;50.034;15.256;2023-02-19T07:30:21;99071.44;;;10.04;91.65
70103;BME280;57470;50.034;15.256;2023-02-19T07:32:46;99077.00;;;10.01;92.12
70103;BME280;57470;50.034;15.256;2023-02-19T07:35:12;99081.00;;;10.07;92.11
70103;BME280;57470;50.034;15.256;2023-02-19T07:37:39;99083.47;;;10.10;92.15
70103;BME280;57470;50.034;15.256;2023-02-19T07:40:05;99084.69;;;10.17;92.26
70103;BME280;57470;50.034;15.256;2023-02-19T07:42:31;99099.13;;;10.02;92.81
70103;BME280;57470;50.034;15.256;2023-02-19T07:44:56;99104.09;;;10.06;93.09
70103;BME280;57470;50.034;15.256;2023-02-19T07:47:21;99090.69;;;10.08;93.26
70103;BME280;57470;50.034;15.256;2023-02-19T07:49:47;99099.41;;;10.10;93.12
70103;BME280;57470;50.034;15.256;2023-02-19T07:52:12;99111.41;;;10.03;92.74
70103;BME280;57470;50.034;15.256;2023-02-19T07:54:37;99108.53;;;10.06;93.08
70103;BME280;57470;50.034;15.256;2023-02-19T07:57:03;99122.56;;;10.08;93.69
70103;BME280;57470;50.034;15.256;2023-02-19T07:59:28;99117.28;;;9.95;94.80
70103;BME280;57470;50.034;15.256;2023-02-19T08:01:53;99134.91;;;9.96;95.37
70103;BME280;57470;50.034;15.256;2023-02-19T08:04:37;99142.59;;;9.88;96.27
70103;BME280;57470;50.034;15.256;2023-02-19T08:07:03;99140.88;;;10.00;96.99
70103;BME280;57470;50.034;15.256;2023-02-19T08:09:29;99137.72;;;9.82;97.50
70103;BME280;57470;50.034;15.256;2023-02-19T08:11:55;99151.63;;;9.86;97.30
70103;BME280;57470;50.034;15.256;2023-02-19T08:14:39;99159.38;;;9.89;98.45
70103;BME280;57470;50.034;15.256;2023-02-19T08:17:04;99152.19;;;9.65;99.59
70103;BME280;57470;50.034;15.256;2023-02-19T08:19:29;99161.53;;;9.71;99.74
70103;BME280;57470;50.034;15.256;2023-02-19T08:21:55;99171.28;;;9.70;100.00
70103;BME280;57470;50.034;15.256;2023-02-19T08:24:20;99175.03;;;9.55;100.00
70103;BME280;57470;50.034;15.256;2023-02-19T08:26:46;99183.59;;;9.59;100.00
70103;BME280;57470;50.034;15.256;2023-02-19T08:29:11;99188.41;;;9.54;100.00
70103;BME280;57470;50.034;15.256;2023-02-19T08:31:37;99201.34;;;9.58;100.00
70103;BME280;57470;50.034;15.256;2023-02-19T08:34:02;99195.72;;;9.50;100.00
70103;BME280;57470;50.034;15.256;2023-02-19T08:36:28;99206.53;;;9.34;100.00
70103;BME280;57470;50.034;15.256;2023-02-19T08:38:53;99207.38;;;9.35;100.00
70103;BME280;57470;50.034;15.256;2023-02-19T08:41:19;99209.84;;;9.38;100.00
70103;BME280;57470;50.034;15.256;2023-02-19T08:43:45;99202.72;;;9.38;100.00
70103;BME280;57470;50.034;15.256;2023-02-19T08:46:10;99197.84;;;9.45;100.00
70103;BME280;57470;50.034;15.256;2023-02-19T08:48:36;99200.50;;;9.45;100.00
70103;BME280;57470;50.034;15.256;2023-02-19T08:51:04;99206.75;;;9.44;100.00
70103;BME280;57470;50.034;15.256;2023-02-19T08:53:33;99197.94;;;9.44;100.00
70103;BME280;57470;50.034;15.256;2023-02-19T08:56:04;99202.66;;;9.65;100.00
70103;BME280;57470;50.034;15.256;2023-02-19T08:58:30;99204.66;;;9.62;100.00
70103;BME280;57470;50.034;15.256;2023-02-19T09:00:56;99209.75;;;9.77;100.00
70103;BME280;57470;50.034;15.256;2023-02-19T09:03:22;99214.41;;;9.61;100.00
70103;BME280;57470;50.034;15.256;2023-02-19T09:05:47;99207.19;;;9.51;100.00
70103;BME280;57470;50.034;15.256;2023-02-19T09:08:13;99215.59;;;9.57;100.00
70103;BME280;57470;50.034;15.256;2023-02-19T09:10:38;99211.25;;;9.56;100.00
70103;BME280;57470;50.034;15.256;2023-02-19T09:13:04;99218.88;;;9.61;100.00
70103;BME280;57470;50.034;15.256;2023-02-19T09:15:29;99224.84;;;9.64;100.00
70103;BME280;57470;50.034;15.256;2023-02-19T09:17:55;99223.47;;;9.71;100.00
70103;BME280;57470;50.034;15.256;2023-02-19T09:20:20;99217.06;;;9.87;100.00
70103;BME280;57470;50.034;15.256;2023-02-19T09:22:45;99210.59;;;9.78;100.00
70103;BME280;57470;50.034;15.256;2023-02-19T09:25:11;99233.25;;;9.84;100.00
70103;BME280;57470;50.034;15.256;2023-02-19T09:27:36;99230.59;;;9.84;100.00
70103;BME280;57470;50.034;15.256;2023-02-19T09:30:02;99225.47;;;9.81;100.00
70103;BME280;57470;50.034;15.256;2023-02-19T09:32:31;99235.66;;;9.87;100.00
70103;BME280;57470;50.034;15.256;2023-02-19T09:34:57;99232.81;;;9.90;100.00
70103;BME280;57470;50.034;15.256;2023-02-19T09:37:26;99230.56;;;9.96;100.00
70103;BME280;57470;50.034;15.256;2023-02-19T09:39:52;99229.41;;;9.88;100.00
70103;BME280;57470;50.034;15.256;2023-02-19T09:42:20;99235.66;;;9.87;99.80
70103;BME280;57470;50.034;15.256;2023-02-19T09:44:49;99240.56;;;9.93;99.68
70103;BME280;57470;50.034;15.256;2023-02-19T09:47:20;99248.53;;;9.93;99.59
70103;BME280;57470;50.034;15.256;2023-02-19T09:49:48;99255.53;;;9.94;99.73
70103;BME280;57470;50.034;15.256;2023-02-19T09:54:45;99266.25;;;9.79;99.87
70103;BME280;57470;50.034;15.256;2023-02-19T09:57:14;99266.78;;;9.85;99.93
70103;BME280;57470;50.034;15.256;2023-02-19T09:59:47;99269.16;;;9.89;99.42
70103;BME280;57470;50.034;15.256;2023-02-19T10:02:21;99273.16;;;9.95;99.65
70103;BME280;57470;50.034;15.256;2023-02-19T10:04:48;99287.63;;;9.91;99.53
70103;BME280;57470;50.034;15.256;2023-02-19T10:07:23;99286.66;;;9.79;100.00
70103;BME280;57470;50.034;15.256;2023-02-19T10:09:57;99306.00;;;9.81;100.00
70103;BME280;57470;50.034;15.256;2023-02-19T10:12:31;99293.31;;;9.59;100.00
70103;BME280;57470;50.034;15.256;2023-02-19T10:15:37;99302.56;;;9.54;100.00
70103;BME280;57470;50.034;15.256;2023-02-19T10:18:03;99309.88;;;9.50;100.00
70103;BME280;57470;50.034;15.256;2023-02-19T10:20:30;99312.97;;;9.57;100.00
70103;BME280;57470;50.034;15.256;2023-02-19T10:23:06;99317.69;;;9.66;100.00
70103;BME280;57470;50.034;15.256;2023-02-19T10:25:33;99324.38;;;9.71;100.00
70103;BME280;57470;50.034;15.256;2023-02-19T10:28:00;99320.03;;;9.83;100.00
70103;BME280;57470;50.034;15.256;2023-02-19T10:30:33;99320.16;;;9.82;100.00
70103;BME280;57470;50.034;15.256;2023-02-19T10:33:08;99327.59;;;9.89;100.00
70103;BME280;57470;50.034;15.256;2023-02-19T10:35:37;99330.91;;;9.93;100.00
70103;BME280;57470;50.034;15.256;2023-02-19T10:38:15;99323.66;;;9.95;100.00
70103;BME280;57470;50.034;15.256;2023-02-19T10:40:43;99324.28;;;9.86;100.00
70103;BME280;57470;50.034;15.256;2023-02-19T10:43:21;99333.81;;;9.75;100.00
70103;BME280;57470;50.034;15.256;2023-02-19T10:45:55;99340.53;;;9.81;100.00
70103;BME280;57470;50.034;15.256;2023-02-19T10:48:24;99341.06;;;9.73;100.00
70103;BME280;57470;50.034;15.256;2023-02-19T10:50:54;99347.84;;;9.65;100.00
70103;BME280;57470;50.034;15.256;2023-02-19T10:53:23;99342.91;;;9.59;100.00
70103;BME280;57470;50.034;15.256;2023-02-19T10:56:12;99351.88;;;9.70;100.00
70103;BME280;57470;50.034;15.256;2023-02-19T10:58:38;99358.13;;;9.69;100.00
70103;BME280;57470;50.034;15.256;2023-02-19T11:01:15;99362.78;;;9.53;100.00
70103;BME280;57470;50.034;15.256;2023-02-19T11:03:41;99366.94;;;9.57;100.00
70103;BME280;57470;50.034;15.256;2023-02-19T11:06:08;99372.13;;;9.59;100.00
70103;BME280;57470;50.034;15.256;2023-02-19T11:08:44;99382.75;;;9.32;100.00
70103;BME280;57470;50.034;15.256;2023-02-19T11:11:42;99392.25;;;9.22;100.00
70103;BME280;57470;50.034;15.256;2023-02-19T11:14:18;99398.47;;;8.94;100.00
70103;BME280;57470;50.034;15.256;2023-02-19T11:16:48;99402.72;;;8.96;100.00
70103;BME280;57470;50.034;15.256;2023-02-19T11:19:37;99411.38;;;8.72;100.00
70103;BME280;57470;50.034;15.256;2023-02-19T11:22:38;99412.00;;;8.61;100.00
70103;BME280;57470;50.034;15.256;2023-02-19T11:25:17;99409.47;;;8.59;100.00
70103;BME280;57470;50.034;15.256;2023-02-19T11:28:02;99409.47;;;8.59;100.00
70103;BME280;57470;50.034;15.256;2023-02-19T11:30:36;99421.13;;;8.57;100.00
70103;BME280;57470;50.034;15.256;2023-02-19T11:33:26;99417.41;;;8.59;100.00
70103;BME280;57470;50.034;15.256;2023-02-19T11:36:17;99425.66;;;8.55;100.00
70103;BME280;57470;50.034;15.256;2023-02-19T11:38:45;99429.47;;;8.65;100.00
70103;BME280;57470;50.034;15.256;2023-02-19T11:47:24;99435.69;;;8.50;100.00
70103;BME280;57470;50.034;15.256;2023-02-19T11:55:53;99452.34;;;8.52;100.00
70103;BME280;57470;50.034;15.256;2023-02-19T12:01:11;99448.56;;;8.70;100.00
70103;BME280;57470;50.034;15.256;2023-02-19T12:14:21;99464.66;;;8.53;100.00
70103;BME280;57470;50.034;15.256;2023-02-19T12:19:56;99480.25;;;8.43;100.00
70103;BME280;57470;50.034;15.256;2023-02-19T12:22:29;99494.97;;;8.49;100.00
70103;BME280;57470;50.034;15.256;2023-02-19T12:27:54;99518.09;;;8.31;100.00
70103;BME280;57470;50.034;15.256;2023-02-19T12:34:11;99523.53;;;7.82;100.00
70103;BME280;57470;50.034;15.256;2023-02-19T12:38:43;99560.03;;;7.44;100.00
70103;BME280;57470;50.034;15.256;2023-02-19T12:44:37;99558.53;;;7.40;99.33
70103;BME280;57470;50.034;15.256;2023-02-19T12:47:06;99561.31;;;7.37;98.20
70103;BME280;57470;50.034;15.256;2023-02-19T12:49:46;99574.81;;;7.33;97.60
70103;BME280;57470;50.034;15.256;2023-02-19T12:52:21;99581.94;;;7.64;98.19
70103;BME280;57470;50.034;15.256;2023-02-19T12:54:51;99581.94;;;7.79;97.92
70103;BME280;57470;50.034;15.256;2023-02-19T12:57:27;99582.56;;;7.69;97.60
70103;BME280;57470;50.034;15.256;2023-02-19T12:59:58;99589.78;;;7.81;98.33
70103;BME280;57470;50.034;15.256;2023-02-19T13:02:32;99591.38;;;7.52;94.72
70103;BME280;57470;50.034;15.256;2023-02-19T13:05:14;99598.31;;;7.54;92.59
70103;BME280;57470;50.034;15.256;2023-02-19T13:08:03;99593.88;;;7.71;93.01
70103;BME280;57470;50.034;15.256;2023-02-19T13:10:37;99596.09;;;7.63;93.42
70103;BME280;57470;50.034;15.256;2023-02-19T13:13:11;99594.28;;;7.47;91.84
70103;BME280;57470;50.034;15.256;2023-02-19T13:15:46;99599.28;;;7.36;91.68
70103;BME280;57470;50.034;15.256;2023-02-19T13:18:21;99608.72;;;7.42;90.95
70103;BME280;57470;50.034;15.256;2023-02-19T13:20:48;99609.97;;;7.35;92.13
70103;BME280;57470;50.034;15.256;2023-02-19T13:23:36;99610.03;;;7.50;92.35
70103;BME280;57470;50.034;15.256;2023-02-19T13:29:28;99625.88;;;7.00;91.68
70103;BME280;57470;50.034;15.256;2023-02-19T13:37:07;99639.81;;;7.04;91.52
70103;BME280;57470;50.034;15.256;2023-02-19T13:39:33;99626.41;;;7.07;91.38
70103;BME280;57470;50.034;15.256;2023-02-19T13:41:59;99636.63;;;7.14;90.27
70103;BME280;57470;50.034;15.256;2023-02-19T13:44:27;99641.06;;;7.14;90.91
70103;BME280;57470;50.034;15.256;2023-02-19T13:46:54;99642.28;;;7.24;90.67
70103;BME280;57470;50.034;15.256;2023-02-19T13:51:58;99644.75;;;7.27;89.61
70103;BME280;57470;50.034;15.256;2023-02-19T13:54:29;99658.31;;;7.21;87.71
70103;BME280;57470;50.034;15.256;2023-02-19T13:57:25;99659.94;;;7.41;87.96
70103;BME280;57470;50.034;15.256;2023-02-19T13:59:53;99671.69;;;7.01;87.38
70103;BME280;57470;50.034;15.256;2023-02-19T14:04:54;99675.50;;;7.30;87.40
70103;BME280;57470;50.034;15.256;2023-02-19T14:09:51;99683.28;;;7.33;86.57
70103;BME280;57470;50.034;15.256;2023-02-19T14:12:19;99692.22;;;7.30;87.40
70103;BME280;57470;50.034;15.256;2023-02-19T14:14:55;99693.09;;;6.96;87.81
70103;BME280;57470;50.034;15.256;2023-02-19T14:17:41;99707.78;;;7.02;86.89
70103;BME280;57470;50.034;15.256;2023-02-19T14:25:39;99716.78;;;6.45;84.34
70103;BME280;57470;50.034;15.256;2023-02-19T14:30:56;99719.03;;;6.35;85.08
70103;BME280;57470;50.034;15.256;2023-02-19T14:33:33;99727.72;;;6.73;85.61
70103;BME280;57470;50.034;15.256;2023-02-19T14:36:16;99734.31;;;7.00;86.02
70103;BME280;57470;50.034;15.256;2023-02-19T14:41:15;99738.75;;;7.00;86.15